Time;durP1;ratioP1;P1;durP2;ratioP2;P2;SDS_P1;SDS_P2;PMS_P1;PMS_P2;Temp;Humidity;BMP_temperature;BMP_pressure;BME280_temperature;BME280_humidity;BME280_pressure;Samples;Min_cycle;Max_cycle;Signal;HPM_P1;HPM_P2
2022/04/25 00:01:10;;;;;;;24.17;17.67;;;13.30;99.70;;;;;;5071294;28;20489;-71
2022/04/25 00:03:37;;;;;;;30.57;21.37;;;13.30;99.90;;;;;;5065572;28;20490;-73
2022/04/25 00:06:04;;;;;;;26.70;17.93;;;13.30;99.90;;;;;;5063507;28;20810;-72
2022/04/25 00:08:33;;;;;;;40.00;22.63;;;13.30;99.90;;;;;;5071140;28;20877;-72
2022/04/25 00:10:59;;;;;;;27.03;16.83;;;13.20;99.90;;;;;;5073166;28;20484;-73
2022/04/25 00:13:26;;;;;;;31.73;17.23;;;13.20;99.90;;;;;;5068339;28;20478;-72
2022/04/25 00:15:55;;;;;;;41.00;18.67;;;;;;;;;;5070967;28;20493;-75
2022/04/25 00:18:22;;;;;;;41.37;21.07;;;13.20;99.90;;;;;;5072706;28;20573;-72
2022/04/25 00:20:49;;;;;;;26.93;18.33;;;13.30;99.90;;;;;;5066253;28;20997;-71
2022/04/25 00:23:15;;;;;;;27.77;18.43;;;13.30;99.90;;;;;;5060717;28;20480;-72
2022/04/25 00:25:44;;;;;;;24.10;17.00;;;13.30;99.90;;;;;;5066230;28;20484;-71
2022/04/25 00:28:10;;;;;;;32.03;17.10;;;13.40;99.90;;;;;;5070898;28;20508;-72
2022/04/25 00:30:37;;;;;;;35.80;21.60;;;13.40;99.60;;;;;;5069685;28;20485;-72
2022/04/25 00:33:04;;;;;;;29.73;18.27;;;13.40;99.90;;;;;;5074171;28;20781;-72
2022/04/25 00:35:32;;;;;;;33.90;20.93;;;13.40;99.70;;;;;;5068376;28;20492;-74
2022/04/25 00:37:58;;;;;;;28.07;17.20;;;13.40;99.70;;;;;;5070524;28;20488;-74
2022/04/25 00:40:26;;;;;;;30.37;20.00;;;13.40;99.70;;;;;;5065027;28;20615;-75
2022/04/25 00:42:55;;;;;;;34.47;17.90;;;13.30;99.90;;;;;;5072684;28;20488;-72
2022/04/25 00:45:22;;;;;;;27.27;18.33;;;13.20;99.90;;;;;;5066654;28;20490;-73
2022/04/25 00:47:48;;;;;;;29.93;18.00;;;13.20;99.90;;;;;;5072648;28;20595;-73
2022/04/25 00:50:16;;;;;;;27.47;18.40;;;13.20;99.90;;;;;;5072896;28;20477;-75
2022/04/25 00:52:43;;;;;;;26.57;17.70;;;13.20;99.90;;;;;;5074100;28;20507;-72
2022/04/25 00:55:11;;;;;;;25.20;16.87;;;13.20;99.80;;;;;;5063723;28;20509;-74
2022/04/25 00:57:39;;;;;;;23.80;17.90;;;13.20;99.80;;;;;;5073017;28;20520;-74
2022/04/25 01:00:12;;;;;;;26.70;17.20;;;13.20;99.90;;;;;;5075246;28;20480;-74
2022/04/25 01:02:39;;;;;;;32.93;19.10;;;13.20;99.80;;;;;;5068334;28;20487;-73
2022/04/25 01:05:07;;;;;;;40.03;16.70;;;13.20;99.80;;;;;;5072736;28;20489;-74
2022/04/25 01:07:36;;;;;;;28.87;19.67;;;13.10;99.90;;;;;;5069741;28;20489;-73
2022/04/25 01:10:03;;;;;;;26.20;17.77;;;12.90;99.90;;;;;;5080882;28;20965;-72
2022/04/25 01:12:31;;;;;;;29.80;21.00;;;12.70;99.90;;;;;;5070519;28;20495;-73
2022/04/25 01:15:00;;;;;;;31.30;17.70;;;12.70;99.90;;;;;;5074354;28;20485;-73
2022/04/25 01:17:28;;;;;;;30.90;17.97;;;12.60;99.90;;;;;;5069840;28;20479;-73
2022/04/25 01:19:55;;;;;;;30.80;18.10;;;12.60;99.90;;;;;;5065551;28;20481;-71
2022/04/25 01:22:28;;;;;;;29.53;18.97;;;12.60;99.90;;;;;;5071011;28;21020;-72
2022/04/25 01:27:42;;;;;;;41.00;19.90;;;12.50;99.90;;;;;;5065954;28;20943;-73
2022/04/25 01:30:10;;;;;;;29.50;17.17;;;12.40;99.90;;;;;;5068554;28;20486;-72
2022/04/25 01:32:37;;;;;;;34.50;19.57;;;12.40;99.90;;;;;;5066887;28;20491;-71
2022/04/25 01:35:05;;;;;;;31.90;19.53;;;12.40;99.90;;;;;;5074087;28;20969;-70
2022/04/25 01:37:32;;;;;;;42.40;22.70;;;12.30;99.90;;;;;;5074370;28;20493;-70
2022/04/25 01:40:00;;;;;;;28.17;19.10;;;12.40;99.90;;;;;;5063850;28;20488;-73
2022/04/25 01:42:27;;;;;;;44.17;23.23;;;12.30;99.90;;;;;;5086556;28;20472;-70
2022/04/25 01:44:54;;;;;;;28.90;19.47;;;12.30;99.90;;;;;;5067791;28;20584;-71
2022/04/25 01:47:23;;;;;;;34.27;21.37;;;12.30;99.90;;;;;;5054983;28;20476;-73
2022/04/25 01:49:50;;;;;;;40.70;23.47;;;12.30;99.90;;;;;;5057023;28;20489;-73
2022/04/25 01:52:28;;;;;;;42.20;18.70;;;12.20;99.90;;;;;;5058253;28;20489;-73
2022/04/25 01:54:55;;;;;;;23.10;15.43;;;12.30;99.90;;;;;;5066127;28;21203;-73
2022/04/25 01:57:24;;;;;;;32.73;19.47;;;12.40;99.90;;;;;;5058803;28;20480;-73
2022/04/25 01:59:51;;;;;;;30.80;19.00;;;12.40;99.90;;;;;;5060630;28;20488;-72
2022/04/25 02:02:18;;;;;;;25.87;17.93;;;12.60;99.90;;;;;;5064492;28;21204;-72
2022/04/25 02:04:45;;;;;;;33.37;18.80;;;12.60;99.90;;;;;;5041283;28;20559;-73
2022/04/25 02:07:12;;;;;;;29.23;19.23;;;12.70;99.90;;;;;;5059677;28;20966;-72
2022/04/25 02:09:40;;;;;;;31.30;20.60;;;12.70;99.90;;;;;;5042985;28;20481;-73
2022/04/25 02:12:08;;;;;;;32.67;19.10;;;12.70;99.90;;;;;;5070317;28;20479;-71
2022/04/25 02:14:37;;;;;;;38.10;23.73;;;12.70;99.90;;;;;;5075701;28;20524;-73
2022/04/25 02:17:04;;;;;;;26.23;17.87;;;12.70;99.90;;;;;;5071417;28;20484;-72
2022/04/25 02:19:38;;;;;;;34.80;20.67;;;12.70;99.90;;;;;;5067957;28;20478;-72
2022/04/25 02:22:05;;;;;;;31.40;18.33;;;12.70;99.90;;;;;;5074157;28;20858;-74
2022/04/25 02:24:32;;;;;;;32.60;21.13;;;12.70;99.90;;;;;;5069992;28;20575;-73
2022/04/25 02:26:59;;;;;;;31.93;18.83;;;12.70;99.90;;;;;;5064960;28;20898;-73
2022/04/25 02:29:26;;;;;;;37.80;20.10;;;12.70;99.90;;;;;;5067059;28;20494;-71
2022/04/25 02:31:55;;;;;;;27.90;19.07;;;12.70;99.90;;;;;;5074016;28;20504;-71
2022/04/25 02:34:22;;;;;;;31.10;19.80;;;12.70;99.90;;;;;;5066406;28;20473;-72
2022/04/25 02:36:48;;;;;;;27.13;17.00;;;12.60;99.90;;;;;;5063739;28;20558;-74
2022/04/25 02:39:15;;;;;;;30.97;19.80;;;12.50;99.90;;;;;;5071008;28;20489;-74
2022/04/25 02:41:42;;;;;;;50.00;22.00;;;12.40;99.90;;;;;;5060039;28;21226;-70
2022/04/25 02:44:09;;;;;;;28.50;18.30;;;12.20;99.90;;;;;;5074315;28;20496;-72
2022/04/25 02:46:36;;;;;;;39.77;23.50;;;12.10;99.90;;;;;;5063662;28;20478;-73
2022/04/25 02:49:04;;;;;;;32.70;20.27;;;12.20;99.90;;;;;;5066740;28;20816;-71
2022/04/25 02:51:31;;;;;;;32.53;21.03;;;12.30;99.90;;;;;;5067575;28;20487;-71
2022/04/25 02:53:58;;;;;;;33.90;19.97;;;12.40;99.90;;;;;;5064843;28;20493;-71
2022/04/25 02:56:25;;;;;;;31.13;19.47;;;12.50;99.90;;;;;;5068433;28;20480;-73
2022/04/25 02:58:52;;;;;;;33.80;19.33;;;12.50;99.90;;;;;;5073436;28;20488;-72
2022/04/25 03:01:19;;;;;;;34.23;19.87;;;12.50;99.90;;;;;;5066274;28;21131;-71
2022/04/25 03:03:45;;;;;;;30.57;19.50;;;12.50;99.90;;;;;;5071848;28;20488;-73
2022/04/25 03:06:13;;;;;;;30.00;17.50;;;12.60;99.90;;;;;;5061836;28;21018;-74
2022/04/25 03:08:41;;;;;;;31.50;20.20;;;12.50;99.90;;;;;;5064283;28;20489;-72
2022/04/25 03:11:09;;;;;;;159.27;26.83;;;12.40;99.90;;;;;;5065394;28;20474;-72
2022/04/25 03:13:36;;;;;;;124.43;25.07;;;12.40;99.90;;;;;;5066640;28;20572;-73
2022/04/25 03:16:05;;;;;;;30.90;18.20;;;12.40;99.90;;;;;;5068872;28;20487;-71
2022/04/25 03:18:33;;;;;;;73.80;24.97;;;12.30;99.90;;;;;;5072935;28;20490;-72
2022/04/25 03:21:00;;;;;;;40.13;22.13;;;12.00;99.90;;;;;;5066081;28;20483;-71
2022/04/25 03:23:29;;;;;;;50.53;25.60;;;11.80;99.90;;;;;;5053816;28;20525;-70
2022/04/25 03:25:56;;;;;;;47.37;23.10;;;11.60;99.90;;;;;;5059378;28;20477;-71
2022/04/25 03:28:23;;;;;;;50.10;24.50;;;11.50;99.90;;;;;;5068758;28;20493;-72
2022/04/25 03:30:50;;;;;;;50.20;22.70;;;11.50;99.90;;;;;;5069230;28;20531;-70
2022/04/25 03:33:19;;;;;;;55.27;23.83;;;11.50;99.90;;;;;;5074267;28;20471;-73
2022/04/25 03:35:46;;;;;;;37.27;20.60;;;11.50;99.90;;;;;;5069051;28;20942;-72
2022/04/25 03:38:14;;;;;;;34.73;18.63;;;11.60;99.90;;;;;;5067107;28;20858;-72
2022/04/25 03:40:43;;;;;;;37.63;20.30;;;11.70;99.90;;;;;;5070928;28;20499;-74
2022/04/25 03:43:10;;;;;;;38.73;21.27;;;11.80;99.90;;;;;;5070257;28;20539;-71
2022/04/25 03:45:37;;;;;;;41.70;24.90;;;11.70;99.90;;;;;;5063784;28;20468;-71
2022/04/25 03:48:05;;;;;;;37.27;21.37;;;11.80;99.90;;;;;;5075665;28;20475;-73
2022/04/25 03:50:32;;;;;;;50.23;25.27;;;11.80;99.90;;;;;;5073750;28;20477;-72
2022/04/25 03:53:06;;;;;;;43.30;23.13;;;11.80;99.90;;;;;;5062818;27;20473;-72
2022/04/25 03:58:19;;;;;;;43.30;24.50;;;11.80;99.90;;;;;;5052116;28;20532;-72
2022/04/25 04:00:46;;;;;;;43.10;23.30;;;11.50;99.90;;;;;;5070941;28;20481;-72
2022/04/25 04:03:14;;;;;;;30.40;19.27;;;10.90;99.90;;;;;;5055775;28;20499;-71
2022/04/25 04:05:42;;;;;;;36.63;22.17;;;11.70;99.90;;;;;;5052531;28;20494;-73
2022/04/25 04:08:09;;;;;;;34.60;20.50;;;11.80;99.90;;;;;;5073933;28;20518;-73
2022/04/25 04:10:36;;;;;;;60.87;29.13;;;11.80;99.90;;;;;;5043544;28;20957;-71
2022/04/25 04:13:05;;;;;;;37.37;20.80;;;;;;;;;;5068278;28;20477;-71
2022/04/25 04:15:33;;;;;;;40.57;23.77;;;12.10;99.90;;;;;;5061301;28;21001;-71
2022/04/25 04:18:00;;;;;;;54.87;24.00;;;12.20;99.90;;;;;;5063470;28;20495;-73
2022/04/25 04:20:27;;;;;;;44.50;23.80;;;12.30;99.90;;;;;;5068889;28;20489;-71
2022/04/25 04:22:53;;;;;;;36.90;21.57;;;12.30;99.90;;;;;;5063734;28;20489;-72
2022/04/25 04:25:22;;;;;;;35.17;21.47;;;12.30;99.90;;;;;;5068713;28;21030;-73
2022/04/25 04:27:49;;;;;;;47.17;24.20;;;12.20;99.90;;;;;;5057135;28;20485;-71
2022/04/25 04:30:17;;;;;;;36.63;21.33;;;12.20;99.90;;;;;;5070486;28;20999;-73
2022/04/25 04:32:46;;;;;;;42.80;22.17;;;12.30;99.90;;;;;;5070553;28;20466;-71
2022/04/25 04:36:17;;;;;;;35.90;20.50;;;12.40;99.90;;;;;;5058566;28;20497;-75
2022/04/25 04:38:05;;;;;;;30.90;19.00;;;12.40;99.90;;;;;;5060208;28;20487;-71
2022/04/25 04:40:32;;;;;;;39.80;23.00;;;12.50;99.90;;;;;;5061329;28;20844;-74
2022/04/25 04:43:00;;;;;;;27.97;16.87;;;12.40;99.90;;;;;;5064952;28;20479;-74
2022/04/25 04:45:27;;;;;;;33.53;18.73;;;12.30;99.90;;;;;;5075387;28;20537;-75
2022/04/25 04:47:55;;;;;;;30.03;19.07;;;12.00;99.90;;;;;;5055442;28;20888;-74
2022/04/25 04:50:23;;;;;;;41.80;25.10;;;11.90;99.90;;;;;;5067008;28;20481;-70
2022/04/25 04:52:52;;;;;;;53.23;28.97;;;11.70;99.90;;;;;;5066289;28;20497;-74
2022/04/25 04:55:19;;;;;;;48.73;27.47;;;11.40;99.90;;;;;;5075267;28;20488;-71
2022/04/25 04:57:46;;;;;;;41.23;24.57;;;11.40;99.90;;;;;;5072933;28;20480;-74
2022/04/25 05:00:15;;;;;;;47.67;25.87;;;11.40;99.90;;;;;;5072184;28;21537;-72
2022/04/25 05:02:43;;;;;;;48.57;26.63;;;11.30;99.90;;;;;;5072773;28;20491;-71
2022/04/25 05:05:12;;;;;;;42.20;24.57;;;11.30;99.90;;;;;;5070997;28;21065;-72
2022/04/25 05:07:39;;;;;;;49.57;27.70;;;11.50;99.90;;;;;;5071536;28;20551;-71
2022/04/25 05:10:07;;;;;;;44.00;24.27;;;11.60;99.90;;;;;;5065763;28;20565;-71
2022/04/25 05:12:47;;;;;;;46.53;28.30;;;11.80;99.90;;;;;;5077334;28;20511;-72
2022/04/25 05:15:14;;;;;;;37.63;22.87;;;12.00;99.90;;;;;;5067636;28;20485;-74
2022/04/25 05:17:42;;;;;;;42.90;24.40;;;12.20;99.90;;;;;;5061809;28;21004;-71
2022/04/25 05:20:12;;;;;;;37.67;23.83;;;12.30;99.90;;;;;;5070623;28;20483;-72
2022/04/25 05:22:44;;;;;;;43.00;24.60;;;12.30;99.90;;;;;;5069375;28;20481;-72
2022/04/25 05:25:14;;;;;;;41.37;23.97;;;12.40;99.90;;;;;;5072643;28;20479;-72
2022/04/25 05:27:41;;;;;;;55.97;26.93;;;12.40;99.90;;;;;;5067422;28;20500;-73
2022/04/25 05:30:09;;;;;;;38.00;23.33;;;12.50;99.90;;;;;;5067472;28;20497;-71
2022/04/25 05:32:47;;;;;;;48.80;27.53;;;12.60;99.90;;;;;;5062842;28;20486;-71
2022/04/25 05:35:16;;;;;;;38.40;23.77;;;12.60;99.90;;;;;;5075525;28;20581;-70
2022/04/25 05:37:43;;;;;;;39.20;24.50;;;12.60;99.90;;;;;;5073404;28;20501;-70
2022/04/25 05:40:11;;;;;;;41.83;28.40;;;12.70;99.90;;;;;;5065537;28;20478;-71
2022/04/25 05:42:40;;;;;;;52.00;29.17;;;12.80;99.90;;;;;;5080054;28;20486;-70
2022/04/25 05:45:10;;;;;;;40.93;24.53;;;12.80;99.90;;;;;;5070303;28;20498;-70
2022/04/25 05:47:39;;;;;;;41.60;27.00;;;12.90;99.90;;;;;;5070988;28;20492;-71
2022/04/25 05:52:55;;;;;;;33.83;22.40;;;13.10;99.90;;;;;;5071637;28;20500;-73
2022/04/25 05:55:24;;;;;;;36.10;23.20;;;13.20;99.90;;;;;;5072970;28;20471;-73
2022/04/25 05:57:51;;;;;;;31.60;22.53;;;13.20;99.90;;;;;;5071488;28;20488;-72
2022/04/25 06:00:19;;;;;;;32.13;21.73;;;13.20;99.90;;;;;;5071271;28;20621;-74
2022/04/25 06:02:46;;;;;;;37.63;23.03;;;13.20;99.90;;;;;;5072639;28;20550;-71
2022/04/25 06:05:15;;;;;;;39.97;24.53;;;13.20;99.90;;;;;;5066902;28;20494;-72
2022/04/25 06:07:43;;;;;;;39.10;24.83;;;13.20;99.90;;;;;;5066371;28;20649;-74
2022/04/25 06:10:13;;;;;;;34.77;24.10;;;13.20;99.90;;;;;;5073470;28;20819;-71
2022/04/25 06:12:41;;;;;;;38.50;24.47;;;13.00;99.90;;;;;;5072520;28;20506;-73
2022/04/25 06:15:08;;;;;;;37.43;22.70;;;12.90;99.90;;;;;;5068131;28;20483;-74
2022/04/25 06:17:35;;;;;;;56.90;28.47;;;12.90;99.90;;;;;;5066553;28;20507;-72
2022/04/25 06:20:02;;;;;;;33.60;22.90;;;12.90;99.90;;;;;;5073420;28;20475;-72
2022/04/25 06:22:29;;;;;;;35.40;24.73;;;12.90;99.90;;;;;;5071431;28;20494;-72
2022/04/25 06:24:55;;;;;;;36.23;24.13;;;13.00;99.90;;;;;;5068452;28;20560;-72
2022/04/25 06:27:24;;;;;;;40.00;24.43;;;;;;;;;;5072811;28;20490;-73
2022/04/25 06:29:52;;;;;;;38.13;25.33;;;12.90;99.90;;;;;;5071895;28;20483;-74
2022/04/25 06:32:19;;;;;;;35.97;23.80;;;13.00;99.90;;;;;;5072466;28;20479;-74
2022/04/25 06:34:46;;;;;;;39.33;26.30;;;13.10;99.90;;;;;;5073689;28;20513;-74
2022/04/25 06:37:13;;;;;;;34.07;23.97;;;13.30;99.90;;;;;;5074236;28;20916;-74
2022/04/25 06:39:40;;;;;;;52.87;28.87;;;13.60;99.90;;;;;;5063714;28;20563;-73
2022/04/25 06:42:08;;;;;;;32.93;23.33;;;13.60;99.90;;;;;;5070132;28;20838;-75
2022/04/25 06:44:36;;;;;;;40.93;26.93;;;13.70;99.90;;;;;;5068614;28;20557;-74
2022/04/25 06:47:04;;;;;;;30.67;21.17;;;13.70;99.90;;;;;;5062208;28;20717;-74
2022/04/25 06:49:30;;;;;;;37.07;25.00;;;13.80;99.60;;;;;;5065715;28;20505;-74
2022/04/25 06:51:58;;;;;;;32.50;22.73;;;12.10;98.90;;;;;;5072949;28;21021;-74
2022/04/25 06:54:26;;;;;;;38.90;23.87;;;13.90;99.60;;;;;;5071570;28;20574;-74
2022/04/25 06:56:54;;;;;;;36.70;23.30;;;14.00;99.30;;;;;;5077881;28;20492;-74
2022/04/25 06:59:22;;;;;;;39.60;24.80;;;14.10;99.40;;;;;;5077692;28;20481;-73
2022/04/25 07:01:51;;;;;;;33.17;20.90;;;14.00;99.80;;;;;;5071669;28;20510;-74
2022/04/25 07:04:19;;;;;;;40.00;24.07;;;14.00;99.90;;;;;;5066940;28;20481;-74
2022/04/25 07:06:48;;;;;;;44.17;23.73;;;14.10;99.70;;;;;;5069125;28;20484;-75
2022/04/25 07:09:15;;;;;;;32.33;21.80;;;14.10;99.30;;;;;;5067295;28;20480;-75
2022/04/25 07:11:43;;;;;;;36.00;24.67;;;14.10;99.40;;;;;;5068400;28;21468;-75
2022/04/25 07:14:11;;;;;;;32.73;21.77;;;14.10;99.00;;;;;;5072098;28;20482;-74
2022/04/25 07:16:38;;;;;;;47.73;27.57;;;14.10;99.10;;;;;;5062231;28;20468;-73
2022/04/25 07:19:06;;;;;;;32.20;22.30;;;14.00;99.10;;;;;;5070207;28;21177;-73
2022/04/25 07:29:52;;;;;;;29.93;21.53;;;13.90;99.60;;;;;;5064334;28;20529;-75
2022/04/25 07:32:20;;;;;;;31.77;22.13;;;13.90;99.40;;;;;;5067458;28;20487;-76
2022/04/25 07:34:48;;;;;;;33.07;21.90;;;13.90;99.50;;;;;;5064037;28;21387;-73
2022/04/25 07:37:16;;;;;;;32.20;21.93;;;13.90;99.30;;;;;;5074260;28;20483;-73
2022/04/25 07:39:43;;;;;;;34.90;19.77;;;13.90;99.00;;;;;;5071392;28;20491;-75
2022/04/25 07:42:10;;;;;;;35.07;23.10;;;13.90;99.30;;;;;;5071908;28;20476;-74
2022/04/25 07:44:37;;;;;;;41.30;26.83;;;13.90;99.50;;;;;;5069574;28;20572;-74
2022/04/25 07:47:05;;;;;;;36.43;23.90;;;14.10;99.80;;;;;;5078507;28;20487;-73
2022/04/25 07:49:33;;;;;;;32.63;23.83;;;14.50;99.90;;;;;;5069258;28;21147;-72
2022/04/25 07:52:01;;;;;;;26.57;19.80;;;14.90;99.90;;;;;;5073878;28;21283;-73
2022/04/25 07:54:28;;;;;;;32.17;21.03;;;15.40;99.60;;;;;;5066112;28;20487;-76
2022/04/25 07:56:55;;;;;;;28.40;19.10;;;15.70;99.40;;;;;;5058900;28;20493;-77
2022/04/25 07:59:22;;;;;;;28.10;20.63;;;15.90;97.70;;;;;;5064310;28;20478;-73
2022/04/25 08:01:49;;;;;;;24.90;18.80;;;16.10;98.20;;;;;;5057729;28;20505;-79
2022/04/25 08:04:15;;;;;;;23.67;18.30;;;16.20;98.00;;;;;;5067326;28;20903;-75
2022/04/25 08:06:42;;;;;;;44.47;22.13;;;16.40;97.00;;;;;;5057306;28;20479;-75
2022/04/25 08:09:10;;;;;;;26.27;18.80;;;16.40;96.00;;;;;;5066701;28;20463;-75
2022/04/25 08:11:37;;;;;;;31.40;22.93;;;16.50;96.00;;;;;;5066591;28;20504;-77
2022/04/25 08:19:32;;;;;;;70.47;24.30;;;16.20;95.20;;;;;;5041290;28;20580;-74
2022/04/25 08:22:00;;;;;;;82.83;21.57;;;;;;;;;;5073171;28;20507;-73
2022/04/25 08:24:29;;;;;;;107.27;26.53;;;;;;;;;;5071557;28;20569;-75
2022/04/25 08:26:56;;;;;;;54.37;22.83;;;;;;;;;;5066911;28;20528;-73
2022/04/25 08:29:24;;;;;;;50.77;21.93;;;;;;;;;;5058622;28;20583;-74
2022/04/25 08:31:52;;;;;;;31.10;18.70;;;16.70;95.20;;;;;;5074052;28;20477;-76
2022/04/25 08:34:19;;;;;;;38.97;22.07;;;;;;;;;;5065089;28;20490;-74
2022/04/25 08:36:46;;;;;;;57.50;21.00;;;;;;;;;;5071041;28;20496;-75
2022/04/25 08:39:13;;;;;;;45.77;17.87;;;;;;;;;;5072508;28;20490;-74
2022/04/25 08:41:47;;;;;;;85.00;21.53;;;17.20;94.70;;;;;;5066296;28;20470;-76
2022/04/25 08:44:17;;;;;;;58.13;20.20;;;17.70;95.80;;;;;;5056745;28;20461;-75
2022/04/25 08:46:49;;;;;;;60.93;20.00;;;18.30;94.60;;;;;;5059916;28;20572;-76
2022/04/25 08:49:19;;;;;;;68.20;19.10;;;18.70;94.30;;;;;;5073840;28;20617;-74
2022/04/25 08:51:47;;;;;;;40.67;18.83;;;18.90;92.20;;;;;;5070270;28;20577;-73
2022/04/25 08:54:14;;;;;;;39.63;18.90;;;19.10;93.90;;;;;;5066657;28;20558;-72
2022/04/25 08:56:43;;;;;;;68.43;23.43;;;19.10;92.90;;;;;;5073551;28;20476;-74
2022/04/25 08:59:11;;;;;;;45.53;19.63;;;19.10;93.30;;;;;;5057721;28;20479;-73
2022/04/25 09:01:40;;;;;;;78.90;24.53;;;18.80;91.30;;;;;;5080709;28;20494;-74
2022/04/25 09:04:07;;;;;;;33.70;17.40;;;18.60;91.60;;;;;;5065781;28;20526;-72
2022/04/25 09:06:34;;;;;;;102.63;25.30;;;18.50;92.10;;;;;;5059649;28;20483;-72
2022/04/25 09:09:01;;;;;;;49.63;19.47;;;18.40;89.80;;;;;;5069338;28;20486;-73
2022/04/25 09:14:14;;;;;;;33.50;16.60;;;17.90;89.60;;;;;;5072514;28;20939;-74
2022/04/25 09:16:41;;;;;;;51.70;18.87;;;17.90;90.30;;;;;;5067294;28;20488;-74
2022/04/25 09:19:08;;;;;;;51.17;18.53;;;17.90;90.80;;;;;;5079793;28;20839;-74
2022/04/25 09:21:41;;;;;;;69.93;23.33;;;17.80;90.30;;;;;;5072118;28;20477;-73
2022/04/25 09:24:21;;;;;;;35.10;16.50;;;17.80;90.20;;;;;;5073617;28;20474;-75
2022/04/25 09:26:48;;;;;;;37.53;16.90;;;17.60;90.90;;;;;;5077510;28;20478;-73
2022/04/25 09:29:24;;;;;;;50.27;19.20;;;17.30;91.20;;;;;;5073961;28;20496;-73
2022/04/25 09:31:51;;;;;;;40.57;17.77;;;17.40;91.20;;;;;;5072296;28;20465;-73
2022/04/25 09:34:59;;;;;;;51.83;18.67;;;17.40;90.50;;;;;;5071020;28;20478;-74
2022/04/25 09:37:06;;;;;;;40.37;16.07;;;17.40;90.90;;;;;;5075834;28;20753;-74
2022/04/25 09:39:36;;;;;;;81.07;22.50;;;17.00;90.80;;;;;;5065065;28;20482;-74
2022/04/25 09:42:03;;;;;;;41.87;16.27;;;17.10;90.50;;;;;;5077230;28;20537;-75
2022/04/25 09:44:55;;;;;;;91.07;24.53;;;17.00;90.50;;;;;;5077817;28;20474;-75
2022/04/25 09:47:29;;;;;;;43.37;17.83;;;17.30;92.00;;;;;;5058679;28;20478;-74
2022/04/25 09:50:00;;;;;;;55.20;19.50;;;17.70;94.30;;;;;;5069216;28;20827;-72
2022/04/25 09:52:27;;;;;;;63.33;21.40;;;18.00;93.00;;;;;;5069546;28;22170;-74
2022/04/25 09:54:56;;;;;;;51.57;19.53;;;;;;;;;;5070563;28;20510;-72
2022/04/25 09:57:32;;;;;;;58.73;19.33;;;18.70;92.30;;;;;;5068712;28;20485;-73
2022/04/25 10:00:01;;;;;;;62.90;18.33;;;;;;;;;;5068893;28;20477;-73
2022/04/25 10:02:28;;;;;;;55.23;23.03;;;18.00;92.00;;;;;;5069842;28;21065;-73
2022/04/25 10:04:56;;;;;;;43.13;18.30;;;19.10;91.40;;;;;;5063963;28;20536;-74
2022/04/25 10:07:26;;;;;;;20.10;15.37;;;19.10;91.40;;;;;;5086254;28;20485;-73
2022/04/25 10:09:55;;;;;;;25.17;20.00;;;19.30;90.20;;;;;;5059572;28;20471;-73
2022/04/25 10:12:23;;;;;;;38.47;16.07;;;;;;;;;;5067727;28;20681;-71
2022/04/25 10:14:51;;;;;;;19.77;16.07;;;19.20;89.10;;;;;;5072616;28;20482;-76
2022/04/25 10:17:20;;;;;;;19.53;15.83;;;19.10;90.10;;;;;;5073599;28;20482;-74
2022/04/25 10:19:48;;;;;;;18.90;16.93;;;19.20;91.20;;;;;;5069550;28;20478;-73
2022/04/25 10:22:18;;;;;;;19.30;17.00;;;19.20;91.10;;;;;;5071371;28;20479;-74
2022/04/25 10:24:46;;;;;;;20.73;15.07;;;19.40;91.40;;;;;;5069609;28;20486;-75
2022/04/25 10:27:14;;;;;;;18.37;15.47;;;19.70;91.50;;;;;;5067403;28;20481;-74
2022/04/25 10:29:46;;;;;;;26.50;16.40;;;19.90;90.40;;;;;;5066226;28;20574;-74
2022/04/25 10:32:17;;;;;;;16.83;15.07;;;20.00;89.30;;;;;;5069562;28;21377;-72
2022/04/25 10:34:51;;;;;;;20.33;16.97;;;19.80;88.10;;;;;;5069788;28;20954;-75
2022/04/25 10:37:32;;;;;;;16.40;14.70;;;19.90;90.40;;;;;;5069201;28;20568;-74
2022/04/25 10:40:00;;;;;;;17.03;15.30;;;20.00;90.20;;;;;;5073235;28;20493;-75
2022/04/25 10:45:12;;;;;;;16.37;14.67;;;19.60;85.90;;;;;;5069016;28;20951;-74
2022/04/25 10:47:57;;;;;;;17.47;15.70;;;19.10;84.90;;;;;;5069455;28;20501;-75
2022/04/25 10:50:26;;;;;;;16.90;15.27;;;18.70;88.10;;;;;;5063270;28;20469;-73
2022/04/25 10:52:55;;;;;;;15.90;14.10;;;18.50;86.60;;;;;;5069781;28;20863;-73
2022/04/25 10:55:29;;;;;;;15.60;14.03;;;18.20;90.00;;;;;;5060335;27;20479;-74
2022/04/25 10:58:23;;;;;;;19.00;15.53;;;18.00;90.60;;;;;;5073916;28;21001;-73
2022/04/25 11:00:55;;;;;;;17.10;14.20;;;17.70;90.30;;;;;;5044064;28;20474;-73
2022/04/25 11:03:31;;;;;;;16.27;14.53;;;17.70;90.40;;;;;;5072833;28;20838;-73
2022/04/25 11:06:25;;;;;;;17.37;15.13;;;17.50;90.90;;;;;;5065772;28;21147;-72
2022/04/25 11:08:53;;;;;;;18.97;14.90;;;16.80;91.50;;;;;;5066390;28;20470;-73
2022/04/25 11:11:24;;;;;;;17.70;15.90;;;17.50;91.30;;;;;;5070741;28;20654;-74
2022/04/25 11:14:11;;;;;;;17.63;14.93;;;17.70;90.60;;;;;;5077136;28;20867;-75
2022/04/25 11:16:39;;;;;;;17.33;15.60;;;17.90;91.60;;;;;;5061227;28;20556;-72
2022/04/25 11:19:17;;;;;;;19.63;15.87;;;18.10;91.80;;;;;;5073361;28;20976;-76
2022/04/25 11:21:49;;;;;;;17.73;14.60;;;18.30;91.20;;;;;;5067591;28;20855;-72
2022/04/25 11:24:35;;;;;;;16.17;14.57;;;18.50;90.80;;;;;;5067519;28;20929;-73
2022/04/25 11:27:03;;;;;;;17.80;15.90;;;18.50;91.00;;;;;;5058246;28;20470;-76
2022/04/25 11:29:31;;;;;;;18.83;15.17;;;18.80;91.80;;;;;;5064720;28;20730;-71
2022/04/25 11:32:27;;;;;;;17.10;15.20;;;18.80;89.20;;;;;;5067350;28;20589;-73
2022/04/25 11:34:59;;;;;;;18.33;15.27;;;18.90;90.70;;;;;;5052138;28;20651;-75
2022/04/25 11:37:29;;;;;;;19.53;16.80;;;19.10;88.10;;;;;;5064799;28;20470;-73
2022/04/25 11:40:00;;;;;;;16.17;13.70;;;18.80;84.00;;;;;;5072724;28;20480;-74
2022/04/25 11:42:30;;;;;;;17.57;15.90;;;18.80;85.50;;;;;;5067059;28;20499;-75
2022/04/25 11:44:57;;;;;;;17.60;15.90;;;18.30;86.20;;;;;;5074003;28;21082;-76
2022/04/25 11:47:24;;;;;;;18.57;16.23;;;18.00;86.70;;;;;;5067201;28;20474;-75
2022/04/25 11:50:02;;;;;;;20.07;16.80;;;17.90;87.40;;;;;;5073457;28;20493;-76
2022/04/25 11:52:31;;;;;;;19.77;16.27;;;18.40;91.20;;;;;;5064190;28;20474;-77
2022/04/25 11:54:57;;;;;;;15.80;14.20;;;18.90;90.70;;;;;;5050514;28;20480;-76
2022/04/25 11:57:26;;;;;;;17.67;14.73;;;19.40;90.30;;;;;;5069183;28;21014;-74
2022/04/25 12:00:13;;;;;;;18.17;16.37;;;19.30;85.40;;;;;;5069629;28;20499;-75
2022/04/25 12:02:40;;;;;;;22.00;17.67;;;18.70;83.70;;;;;;5062835;28;20475;-75
2022/04/25 12:05:09;;;;;;;16.70;14.17;;;18.50;86.30;;;;;;5070055;28;21010;-75
2022/04/25 12:07:38;;;;;;;17.97;16.17;;;18.50;84.80;;;;;;5061979;28;20474;-76
2022/04/25 12:15:57;;;;;;;16.37;14.77;;;18.50;86.80;;;;;;5072575;28;20550;-75
2022/04/25 12:18:25;;;;;;;18.17;16.27;;;18.50;83.50;;;;;;5069245;28;20490;-76
2022/04/25 12:21:00;;;;;;;17.00;15.30;;;18.50;85.30;;;;;;5069120;28;20497;-75
2022/04/25 12:23:30;;;;;;;16.53;14.87;;;18.70;86.20;;;;;;5068272;28;20505;-76
2022/04/25 12:25:58;;;;;;;16.53;14.80;;;18.80;86.40;;;;;;5065191;28;20486;-76
2022/04/25 12:28:26;;;;;;;15.50;13.97;;;19.00;86.40;;;;;;5070707;28;20659;-75
2022/04/25 12:30:54;;;;;;;16.10;14.40;;;18.90;84.60;;;;;;5075505;28;20475;-77
2022/04/25 12:33:23;;;;;;;18.23;16.33;;;19.00;85.50;;;;;;5065560;28;20852;-75
2022/04/25 12:35:52;;;;;;;20.37;15.50;;;19.40;83.50;;;;;;5061811;28;20479;-76
2022/04/25 12:38:40;;;;;;;16.50;14.80;;;19.10;85.10;;;;;;5068985;28;20514;-77
2022/04/25 12:41:08;;;;;;;18.00;15.63;;;19.10;84.20;;;;;;5066444;28;20562;-77
2022/04/25 12:43:46;;;;;;;18.00;16.10;;;19.10;85.40;;;;;;5070155;28;20470;-75
2022/04/25 12:46:15;;;;;;;18.23;16.30;;;19.80;83.30;;;;;;5044360;28;20489;-76
2022/04/25 12:49:01;;;;;;;16.93;14.30;;;19.20;85.10;;;;;;5064541;28;20482;-77
2022/04/25 12:51:46;;;;;;;17.47;15.60;;;19.20;83.00;;;;;;5064677;28;20485;-76
2022/04/25 12:54:25;;;;;;;17.93;15.87;;;19.00;84.20;;;;;;5076496;28;20529;-78
2022/04/25 12:56:55;;;;;;;15.90;13.60;;;19.30;86.20;;;;;;5078745;28;20475;-79
2022/04/25 12:59:26;;;;;;;16.87;15.13;;;19.60;83.70;;;;;;5069936;28;20483;-79
2022/04/25 13:02:02;;;;;;;16.70;15.10;;;19.30;83.60;;;;;;5073506;28;20481;-78
2022/04/25 13:04:29;;;;;;;19.43;17.40;;;19.20;84.20;;;;;;5072103;28;20553;-79
2022/04/25 13:06:56;;;;;;;20.33;18.20;;;19.10;83.00;;;;;;5073267;28;20493;-78
2022/04/25 13:09:24;;;;;;;19.07;15.73;;;19.00;81.90;;;;;;5073751;28;20514;-76
2022/04/25 13:11:51;;;;;;;19.67;16.50;;;19.30;84.50;;;;;;5073242;28;20482;-75
2022/04/25 13:14:18;;;;;;;21.30;19.00;;;19.30;81.30;;;;;;5069387;28;20886;-78